Terminal Aerodrome Forecast
Issued by NWS Detroit/Pontiac, MI

Current Version | Previous Version | Text Only | Print | Product List | Glossary On
Versions: 1 2 3 4 5 6 7 8 9 10 11 12 13
000
FTUS43 KDTX 232300
TAFFNT
TAF
KFNT 232320Z 2400/2424 01010KT P6SM SCT040
     FM240200 33006KT P6SM SKC
     FM241400 35007KT P6SM SCT045
     FM242100 31007KT P6SM FEW060=

USA.gov is the U.S. government's official web portal to all federal, state and local government web resources and services.